Time;durP1;ratioP1;P1;durP2;ratioP2;P2;SDS_P1;SDS_P2;PMS_P1;PMS_P2;Temp;Humidity;BMP_temperature;BMP_pressure;BME280_temperature;BME280_humidity;BME280_pressure;Samples;Min_cycle;Max_cycle;Signal;HPM_P1;HPM_P2
2022/05/21 00:01:24;;;;;;;10.65;3.00;;;;;;;11.34;100.00;101183.03;4853570;29;20048;-74
2022/05/21 00:03:50;;;;;;;8.32;2.92;;;;;;;11.37;100.00;101187.16;4850041;29;20053;-74
2022/05/21 00:06:16;;;;;;;14.10;3.03;;;;;;;11.35;100.00;155375.16;4865259;29;20037;-75
2022/05/21 00:08:41;;;;;;;9.38;2.30;;;;;;;11.20;100.00;155339.19;4838621;29;20511;-73
2022/05/21 00:11:07;;;;;;;10.10;2.05;;;;;;;11.14;100.00;155322.53;4866601;29;20071;-75
2022/05/21 00:13:33;;;;;;;6.25;2.10;;;;;;;11.10;100.00;155313.56;4867136;29;20579;-73
2022/05/21 00:15:59;;;;;;;11.25;2.30;;;;;;;11.00;100.00;155287.88;4870852;29;20507;-76
2022/05/21 00:18:24;;;;;;;10.38;2.13;;;;;;;10.96;100.00;155277.59;4840540;29;20070;-74
2022/05/21 00:20:50;;;;;;;9.57;2.22;;;;;;;10.85;100.00;155250.66;4869301;29;20048;-75
2022/05/21 00:23:23;;;;;;;7.93;2.03;;;;;;;10.97;100.00;155281.47;4851297;29;20437;-77
2022/05/21 00:25:56;;;;;;;6.47;2.00;;;;;;;10.89;100.00;155260.94;4852735;29;20045;-74
2022/05/21 00:28:22;;;;;;;9.45;2.40;;;;;;;10.85;100.00;155251.97;4875877;29;20045;-75
2022/05/21 00:30:48;;;;;;;9.50;2.47;;;;;;;10.81;100.00;155240.38;4854081;29;20024;-75
2022/05/21 00:33:14;;;;;;;7.95;3.72;;;;;;;10.64;100.00;155199.38;4850200;29;20044;-75
2022/05/21 00:35:40;;;;;;;13.68;2.60;;;;;;;10.75;100.00;155225.00;4854940;29;20080;-74
2022/05/21 00:38:05;;;;;;;13.57;2.65;;;;;;;10.80;100.00;155239.13;4870620;29;20037;-74
2022/05/21 00:40:31;;;;;;;10.02;2.53;;;;;;;10.61;100.00;155191.66;4873715;29;20045;-77
2022/05/21 00:42:57;;;;;;;8.02;2.83;;;;;;;10.52;100.00;155169.81;4846087;29;20801;-75
2022/05/21 00:45:24;;;;;;;8.05;3.42;;;;;;;10.49;100.00;155162.16;4877150;29;20221;-78
2022/05/21 00:47:50;;;;;;;8.77;2.88;;;;;;;10.50;100.00;155163.44;4858904;29;20036;-75
2022/05/21 00:50:20;;;;;;;6.97;3.10;;;;;;;10.51;100.00;155167.28;4859070;29;20093;-75
2022/05/21 00:52:47;;;;;;;7.63;3.13;;;;;;;10.50;100.00;155163.44;4870583;29;20487;-75
2022/05/21 00:55:38;;;;;;;10.75;3.30;;;;;;;10.45;100.00;155151.91;4877587;29;20040;-75
2022/05/21 01:00:53;;;;;;;12.02;3.70;;;;;;;10.26;100.00;155103.06;4873963;29;20041;-75
2022/05/21 01:03:19;;;;;;;12.88;3.72;;;;;;;10.28;100.00;155109.53;4884980;29;20127;-76
2022/05/21 01:05:47;;;;;;;10.48;3.70;;;;;;;10.29;100.00;155110.78;4868970;29;20063;-76
2022/05/21 01:08:13;;;;;;;16.80;4.10;;;;;;;10.31;100.00;155117.22;4852025;29;20057;-74
2022/05/21 01:10:45;;;;;;;15.70;3.72;;;;;;;10.35;100.00;155124.94;4860094;29;20392;-76
2022/05/21 01:13:15;;;;;;;11.50;4.20;;;;;;;10.37;100.00;155130.06;4840835;29;20044;-77
2022/05/21 01:15:47;;;;;;;9.43;4.15;;;;;;;10.27;100.00;155106.94;4861561;29;20151;-78
2022/05/21 01:18:13;;;;;;;12.70;4.60;;;;;;;10.23;100.00;155096.69;4848206;29;20041;-77
2022/05/21 01:20:46;;;;;;;20.88;4.55;;;;;;;10.07;100.00;155056.91;4864461;29;20332;-75
2022/05/21 01:23:14;;;;;;;13.00;4.75;;;;;;;10.01;100.00;155040.25;4861205;29;20677;-75
2022/05/21 01:25:42;;;;;;;12.50;5.05;;;;;;;10.04;100.00;155047.91;4856618;29;20078;-76
2022/05/21 01:28:13;;;;;;;9.85;4.70;;;;;;;10.12;100.00;155069.72;4858956;29;20498;-78
2022/05/21 01:30:43;;;;;;;13.27;4.75;;;;;;;10.13;100.00;155071.00;4839031;29;20068;-75
2022/05/21 01:33:13;;;;;;;11.30;4.40;;;;;;;9.97;100.00;155031.25;4845921;29;20399;-73
2022/05/21 01:35:40;;;;;;;13.88;5.07;;;;;;;10.09;100.00;155060.75;4851894;29;20060;-75
2022/05/21 01:38:07;;;;;;;14.23;4.43;;;;;;;10.12;100.00;155069.72;4832870;29;20048;-75
2022/05/21 01:40:33;;;;;;;10.60;4.90;;;;;;;10.01;100.00;155041.50;4846216;29;20037;-76
2022/05/21 01:45:44;;;;;;;9.57;4.70;;;;;;;10.14;100.00;155074.84;4870227;29;20113;-74
2022/05/21 01:48:10;;;;;;;13.90;5.13;;;;;;;10.20;100.00;155088.97;4848852;29;20036;-76
2022/05/21 01:50:37;;;;;;;11.88;4.82;;;;;;;10.18;100.00;155082.56;4854368;29;20033;-73
2022/05/21 01:53:03;;;;;;;10.00;5.28;;;;;;;10.17;100.00;155079.97;4874583;29;20063;-75
2022/05/21 01:55:29;;;;;;;14.80;5.90;;;;;;;10.24;100.00;155099.22;4855262;29;20069;-76
2022/05/21 01:57:55;;;;;;;9.77;5.53;;;;;;;10.31;100.00;155117.22;4854065;29;20083;-75
2022/05/21 02:00:21;;;;;;;16.08;5.95;;;;;;;10.32;100.00;155118.50;4853384;29;20032;-73
2022/05/21 02:02:47;;;;;;;13.65;5.07;;;;;;;10.33;100.00;155122.38;4838723;29;20092;-74
2022/05/21 02:05:13;;;;;;;9.57;5.40;;;;;;;10.43;100.00;155145.47;4858729;29;20132;-75
2022/05/21 02:07:38;;;;;;;10.88;5.43;;;;;;;10.46;100.00;155154.44;4846588;29;20033;-73
2022/05/21 02:10:05;;;;;;;9.25;5.40;;;;;;;10.50;100.00;155163.44;4849934;29;20136;-76
2022/05/21 02:12:32;;;;;;;12.40;5.43;;;;;;;10.51;100.00;155167.28;4865566;29;20109;-76
2022/05/21 02:14:58;;;;;;;12.35;4.85;;;;;;;10.52;100.00;155168.56;4858219;29;20118;-75
2022/05/21 02:17:24;;;;;;;14.85;4.72;;;;;;;10.60;100.00;155189.06;4852029;29;20037;-76
2022/05/21 02:19:49;;;;;;;6.38;4.20;;;;;;;10.70;100.00;155213.47;4875574;29;20038;-74
2022/05/21 02:22:16;;;;;;;7.60;4.13;;;;;;;10.75;100.00;155225.00;4865962;29;20036;-76
2022/05/21 02:24:43;;;;;;;9.73;4.32;;;;;;;10.68;100.00;155208.31;4859166;29;20041;-75
2022/05/21 02:27:14;;;;;;;10.15;4.25;;;;;;;10.61;100.00;155191.66;4852380;29;20029;-76
2022/05/21 02:29:41;;;;;;;12.57;4.57;;;;;;;10.55;100.00;155176.28;4864986;29;20065;-75
2022/05/21 02:32:08;;;;;;;7.25;4.30;;;;;;;10.60;100.00;155187.78;4855009;29;20081;-75
2022/05/21 02:34:34;;;;;;;9.05;4.32;;;;;;;10.65;100.00;155200.63;4871438;29;20418;-76
2022/05/21 02:39:44;;;;;;;6.97;4.30;;;;;;;10.61;100.00;155190.38;4853985;29;20128;-74
2022/05/21 02:44:55;;;;;;;11.27;4.38;;;;;;;10.61;100.00;155191.66;4863638;29;20040;-75
2022/05/21 02:47:21;;;;;;;8.57;4.05;;;;;;;10.61;100.00;155191.66;4854390;29;20037;-76
2022/05/21 02:49:47;;;;;;;10.98;3.95;;;;;;;10.63;100.00;155196.78;4870617;29;20460;-73
2022/05/21 02:52:13;;;;;;;12.30;3.85;;;;;;;10.58;100.00;155183.94;4854493;29;20064;-75
2022/05/21 02:54:38;;;;;;;7.18;3.65;;;;;;;10.57;100.00;155181.41;4856241;29;20089;-75
2022/05/21 02:57:07;;;;;;;8.27;3.50;;;;;;;10.49;100.00;155162.16;4840454;29;20476;-75
2022/05/21 02:59:33;;;;;;;6.90;3.67;;;;;;;10.61;100.00;155190.38;4865251;29;20033;-74
2022/05/21 03:01:59;;;;;;;7.43;3.88;;;;;;;10.64;100.00;155199.38;4836364;29;21826;-77
2022/05/21 03:04:24;;;;;;;5.28;3.15;;;;;;;10.59;100.00;155186.53;4851974;29;20049;-76
2022/05/21 03:06:50;;;;;;;6.22;3.20;;;;;;;10.63;100.00;155195.50;4855801;29;20127;-75
2022/05/21 03:12:00;;;;;;;8.82;3.50;;;;;;;10.60;100.00;155187.78;4845465;29;20041;-74
2022/05/21 03:14:26;;;;;;;7.13;3.30;;;;;;;10.66;100.00;155204.50;4848935;29;20056;-74
2022/05/21 03:16:59;;;;;;;13.93;3.30;;;;;;;10.69;100.00;155212.16;4858658;29;20956;-77
2022/05/21 03:19:25;;;;;;;8.05;3.97;;;;;;;10.63;100.00;155196.78;4855125;29;20041;-77
2022/05/21 03:21:51;;;;;;;5.60;3.33;;;;;;;10.62;100.00;155194.19;4843101;29;20056;-76
2022/05/21 03:24:17;;;;;;;8.90;3.30;;;;;;;10.57;100.00;155180.06;4855858;29;20577;-76
2022/05/21 03:26:42;;;;;;;11.10;3.80;;;;;;;10.55;100.00;155174.94;4840969;29;20045;-76
2022/05/21 03:29:08;;;;;;;9.98;3.17;;;;;;;10.51;100.00;155167.28;4852734;29;20037;-76
2022/05/21 03:31:34;;;;;;;10.48;3.70;;;;;;;10.62;100.00;155192.91;4853937;29;20527;-76
2022/05/21 03:34:00;;;;;;;8.48;3.60;;;;;;;10.58;100.00;155183.94;4839286;29;20491;-73
2022/05/21 03:36:26;;;;;;;11.55;3.53;;;;;;;10.50;100.00;155164.69;4859590;29;20056;-75
2022/05/21 03:38:53;;;;;;;11.57;3.25;;;;;;;10.46;100.00;155154.44;4851297;29;20124;-75
2022/05/21 03:41:18;;;;;;;12.55;3.70;;;;;;;10.42;100.00;155144.19;4855427;29;20037;-74
2022/05/21 03:43:44;;;;;;;8.05;3.60;;;;;;;10.50;100.00;155164.69;4852426;29;20041;-74
2022/05/21 03:46:11;;;;;;;5.95;3.75;;;;;;;10.57;100.00;155181.41;4856607;29;20487;-77
2022/05/21 03:48:36;;;;;;;5.35;3.05;;;;;;;10.60;100.00;155187.78;4877509;29;20047;-77
2022/05/21 03:51:02;;;;;;;9.98;3.78;;;;;;;10.58;100.00;155183.94;4883742;29;20120;-74
2022/05/21 03:53:28;;;;;;;6.28;3.97;;;;;;;10.62;100.00;155194.19;4875724;29;20063;-77
2022/05/21 03:55:55;;;;;;;8.52;3.72;;;;;;;10.63;100.00;155195.50;4858073;29;20041;-76
2022/05/21 03:58:21;;;;;;;10.43;3.50;;;;;;;10.57;100.00;155181.41;4856552;29;20041;-77
2022/05/21 04:00:48;;;;;;;8.45;3.80;;;;;;;10.62;100.00;155194.19;4856177;29;20063;-75
2022/05/21 04:03:14;;;;;;;7.40;3.60;;;;;;;10.58;100.00;155183.94;4886776;29;20063;-73
2022/05/21 04:05:39;;;;;;;7.32;3.53;;;;;;;10.63;100.00;155195.50;4855705;29;20073;-75
2022/05/21 04:08:05;;;;;;;7.85;3.83;;;;;;;10.60;100.00;155189.06;4865855;29;20048;-77
2022/05/21 04:10:31;;;;;;;11.38;3.65;;;;;;;10.69;100.00;155212.16;4842544;29;20575;-77
2022/05/21 04:12:57;;;;;;;10.18;3.85;;;;;;;10.66;100.00;155204.50;4856395;29;20035;-76
2022/05/21 04:15:22;;;;;;;8.75;4.50;;;;;;;10.66;100.00;155204.50;4857901;29;20052;-74
2022/05/21 04:17:53;;;;;;;9.57;3.47;;;;;;;10.80;100.00;155237.84;4858432;29;20048;-78
2022/05/21 04:20:23;;;;;;;11.45;4.05;;;;;;;10.81;100.00;155240.38;4873000;29;20120;-75
2022/05/21 04:22:49;;;;;;;9.48;4.43;;;;;;;10.82;100.00;155244.25;4849105;29;20610;-77
2022/05/21 04:25:15;;;;;;;13.85;5.00;;;;;;;10.87;100.00;155257.09;4851275;29;20120;-78
2022/05/21 04:27:42;;;;;;;15.93;6.82;;;;;;;10.94;100.00;155273.75;4854034;29;20091;-78
2022/05/21 04:30:14;;;;;;;9.60;6.55;;;;;;;10.93;100.00;155271.22;4836292;29;20107;-76
2022/05/21 04:32:40;;;;;;;9.02;6.35;;;;;;;10.98;100.00;155284.06;4839797;29;20088;-78
2022/05/21 04:35:07;;;;;;;13.73;7.78;;;;;;;11.03;100.00;155295.56;4858627;29;20096;-78
2022/05/21 04:37:37;;;;;;;12.98;9.40;;;;;;;11.06;100.00;155303.28;4846314;29;20048;-76
2022/05/21 04:40:07;;;;;;;25.00;13.90;;;;;;;11.06;100.00;155303.28;4872687;29;20032;-75
2022/05/21 04:42:32;;;;;;;19.00;14.13;;;;;;;11.03;100.00;155296.84;4869177;29;20124;-78
2022/05/21 04:44:58;;;;;;;19.15;13.43;;;;;;;11.10;100.00;155314.81;4875512;29;20156;-76
2022/05/21 04:47:24;;;;;;;18.67;13.35;;;;;;;11.13;100.00;155319.97;4847433;29;20042;-76
2022/05/21 04:49:50;;;;;;;21.75;14.65;;;;;;;11.19;100.00;155335.34;4859154;29;20036;-74
2022/05/21 04:52:16;;;;;;;24.30;15.70;;;;;;;11.21;100.00;155340.53;4861244;29;20071;-78
2022/05/21 04:54:41;;;;;;;21.90;15.13;;;;;;;11.27;100.00;155355.91;4839651;29;20097;-76
2022/05/21 04:57:07;;;;;;;20.90;14.82;;;;;;;11.32;100.00;155367.44;4876466;29;20056;-77
2022/05/21 04:59:33;;;;;;;22.30;15.32;;;;;;;11.32;100.00;155368.75;4840300;29;20049;-75
2022/05/21 05:01:59;;;;;;;22.40;14.57;;;;;;;11.38;100.00;155384.16;4867770;29;20036;-75
2022/05/21 05:04:25;;;;;;;24.58;14.35;;;;;;;11.39;100.00;155385.41;4846329;29;20047;-77
2022/05/21 05:06:51;;;;;;;16.55;12.82;;;;;;;11.44;100.00;155399.53;4858963;29;20045;-75
2022/05/21 05:09:21;;;;;;;19.60;13.15;;;;;;;11.45;100.00;155400.81;4868613;29;20068;-76
2022/05/21 05:11:47;;;;;;;18.75;13.65;;;;;;;11.54;100.00;155423.91;4842352;29;20824;-75
2022/05/21 05:14:13;;;;;;;19.55;13.45;;;;;;;11.53;100.00;155421.38;4872220;29;20475;-77
2022/05/21 05:16:39;;;;;;;20.08;13.38;;;;;;;11.44;100.00;155398.25;4855535;29;20042;-76
2022/05/21 05:19:04;;;;;;;21.00;13.68;;;;;;;11.46;100.00;155403.41;4858520;29;20158;-76
2022/05/21 05:21:30;;;;;;;17.70;13.88;;;;;;;11.45;100.00;155400.81;4841961;29;20044;-77
2022/05/21 05:23:56;;;;;;;20.33;14.55;;;;;;;11.48;100.00;155408.53;4861615;29;20033;-76
2022/05/21 05:26:22;;;;;;;25.80;15.77;;;;;;;11.48;100.00;155409.81;4881782;29;20699;-75
2022/05/21 05:28:49;;;;;;;20.83;15.00;;;;;;;11.54;100.00;155422.66;4858426;29;20036;-76
2022/05/21 05:31:15;;;;;;;24.75;16.02;;;;;;;11.56;100.00;155427.78;4860387;29;20043;-75
2022/05/21 05:33:40;;;;;;;22.80;15.60;;;;;;;11.59;100.00;155435.50;4856952;29;20040;-76
2022/05/21 05:36:09;;;;;;;23.88;16.02;;;;;;;11.61;100.00;155441.91;4871275;29;20064;-77
2022/05/21 05:38:35;;;;;;;25.10;16.73;;;;;;;11.58;100.00;155432.91;4857362;29;20049;-75
2022/05/21 05:41:01;;;;;;;27.02;16.75;;;;;;;11.67;100.00;155457.28;4858425;29;20041;-77
2022/05/21 05:43:27;;;;;;;26.65;17.42;;;;;;;11.63;100.00;155447.03;4856953;29;20037;-76
2022/05/21 05:45:59;;;;;;;30.05;19.23;;;;;;;11.64;100.00;155448.31;4869901;29;20049;-73
2022/05/21 05:48:26;;;;;;;27.60;19.05;;;;;;;11.62;100.00;155443.16;4865227;29;20159;-76
2022/05/21 05:50:53;;;;;;;26.30;18.48;;;;;;;11.61;100.00;155440.63;4840652;29;20041;-74
2022/05/21 05:53:19;;;;;;;26.13;18.05;;;;;;;11.52;100.00;155418.78;4855148;29;20602;-75
2022/05/21 05:55:45;;;;;;;30.58;19.65;;;;;;;11.62;100.00;155443.16;4835507;29;20068;-75
2022/05/21 06:00:55;;;;;;;28.50;18.33;;;;;;;11.65;100.00;155452.16;4850608;29;20112;-75
2022/05/21 06:03:21;;;;;;;29.48;18.25;;;;;;;11.58;100.00;155432.91;4869171;29;20125;-75
2022/05/21 06:05:49;;;;;;;26.25;17.48;;;;;;;11.53;100.00;155420.06;4867796;29;20046;-71
2022/05/21 06:08:15;;;;;;;23.13;18.42;;;;;;;11.41;100.00;155391.81;4859731;29;20041;-74
2022/05/21 06:10:44;;;;;;;30.05;18.25;;;;;;;11.36;100.00;155377.69;4871095;29;20039;-74
2022/05/21 06:13:13;;;;;;;29.00;17.73;;;;;;;11.37;100.00;155381.56;4852234;29;20521;-74
2022/05/21 06:15:41;;;;;;;23.45;16.95;;;;;;;11.36;100.00;155379.00;4872379;29;20098;-74
2022/05/21 06:18:22;;;;;;;;;;;;;;;11.34;100.00;155372.56;4853332;29;20136;-73
2022/05/21 06:20:51;;;;;;;23.33;18.27;;;;;;;11.36;100.00;155377.69;4867113;29;20294;-74
2022/05/21 06:23:19;;;;;;;27.73;20.40;;;;;;;11.49;100.00;155411.13;4868639;29;20163;-74
2022/05/21 06:25:47;;;;;;;30.00;21.50;;;;;;;11.64;100.00;155449.63;4854002;29;20408;-76
2022/05/21 06:28:13;;;;;;;34.80;23.38;;;;;;;11.73;100.00;155470.16;4854195;29;20037;-73
2022/05/21 06:30:40;;;;;;;35.42;24.95;;;;;;;11.84;100.00;155498.38;4868398;29;20066;-73
2022/05/21 06:33:27;;;;;;;38.83;24.27;;;;;;;11.98;100.00;155534.41;4871695;29;20665;-76
2022/05/21 06:36:09;;;;;;;35.58;25.70;;;;;;;12.13;100.00;155571.66;4871085;29;20121;-74
2022/05/21 06:38:35;;;;;;;36.33;25.85;;;;;;;12.30;100.00;155614.03;4862519;29;20125;-75
2022/05/21 06:41:02;;;;;;;40.13;25.90;;;;;;;12.36;100.00;155628.16;4866410;29;20033;-77
2022/05/21 06:43:28;;;;;;;36.40;24.23;;;;;;;12.36;100.00;155629.44;4870954;29;20047;-74
2022/05/21 06:45:53;;;;;;;37.22;24.00;;;;;;;12.42;100.00;155644.84;4853299;29;20033;-75
2022/05/21 06:48:19;;;;;;;35.90;24.08;;;;;;;12.65;100.00;155702.63;4860139;29;20415;-76
2022/05/21 06:50:46;;;;;;;35.33;23.00;;;;;;;12.91;100.00;155766.88;4873792;29;20045;-75
2022/05/21 06:53:12;;;;;;;36.92;23.35;;;;;;;13.07;100.00;155806.69;4856184;29;20051;-74
2022/05/21 06:55:38;;;;;;;31.13;22.77;;;;;;;13.17;100.00;155832.41;4859492;29;20041;-74
2022/05/21 06:58:05;;;;;;;29.88;22.58;;;;;;;13.13;100.00;155822.16;4853824;29;20423;-76
2022/05/21 07:00:31;;;;;;;32.33;21.05;;;;;;;13.05;100.00;155802.88;4864238;29;20025;-76
2022/05/21 07:02:56;;;;;;;33.10;19.83;;;;;;;13.06;100.00;155804.16;4836915;29;20040;-75
2022/05/21 07:08:21;;;;;;;30.90;20.15;;;;;;;13.28;100.00;155858.09;4857186;29;20742;-74
2022/05/21 07:10:48;;;;;;;31.58;20.55;;;;;;;13.42;100.00;155895.41;4872313;29;20101;-74
2022/05/21 07:13:15;;;;;;;28.90;20.13;;;;;;;13.28;100.00;155858.09;4868295;29;20048;-74
2022/05/21 07:15:42;;;;;;;28.40;20.60;;;;;;;13.07;100.00;155806.69;4865157;29;20044;-76
2022/05/21 07:18:07;;;;;;;29.30;19.25;;;;;;;13.03;100.00;155797.75;4870779;29;20181;-76
2022/05/21 07:20:34;;;;;;;31.50;19.95;;;;;;;12.94;100.00;155773.28;4858825;29;20037;-76
2022/05/21 07:23:00;;;;;;;35.22;21.10;;;;;;;12.86;100.00;155754.03;4852111;29;20040;-75
2022/05/21 07:25:29;;;;;;;34.25;20.83;;;;;;;12.75;100.00;155725.75;4863974;29;20503;-76
2022/05/21 07:27:55;;;;;;;29.33;19.38;;;;;;;12.59;100.00;155685.97;4851315;29;20040;-75
2022/05/21 07:30:21;;;;;;;30.05;19.33;;;;;;;12.59;100.00;155687.22;4851796;29;20041;-74
2022/05/21 07:32:48;;;;;;;31.85;20.10;;;;;;;12.57;100.00;155680.81;4872167;29;20039;-74
2022/05/21 07:35:15;;;;;;;34.17;20.52;;;;;;;12.61;100.00;155692.34;4867593;29;20041;-76
2022/05/21 07:37:41;;;;;;;28.48;19.38;;;;;;;12.89;100.00;155760.47;4867604;29;20089;-74
2022/05/21 07:40:10;;;;;;;30.05;19.85;;;;;;;13.12;100.00;155819.56;4850536;29;20037;-75
2022/05/21 07:42:36;;;;;;;28.73;18.55;;;;;;;13.53;100.00;155922.44;4865323;29;20610;-76
2022/05/21 07:45:03;;;;;;;29.17;18.45;;;;;;;14.02;100.00;156044.56;4836841;29;20505;-74
2022/05/21 07:47:29;;;;;;;26.35;15.85;;;;;;;14.12;100.00;156068.97;4852992;29;20116;-76
2022/05/21 07:49:56;;;;;;;25.17;14.88;;;;;;;14.16;100.00;156079.25;4853094;29;20572;-76
2022/05/21 07:52:27;;;;;;;23.30;15.57;;;;;;;14.43;100.00;156147.44;4869308;29;20959;-76
2022/05/21 07:54:55;;;;;;;21.73;13.30;;;;;;;14.85;100.00;156251.66;4849125;29;20148;-75
2022/05/21 07:57:21;;;;;;;25.00;13.65;;;;;;;15.16;100.00;156330.09;4859084;29;20072;-74
2022/05/21 07:59:46;;;;;;;21.67;10.98;;;;;;;15.13;100.00;156322.41;4848725;29;20152;-75
2022/05/21 08:02:15;;;;;;;18.27;10.55;;;;;;;14.91;100.00;156267.06;4858098;29;20088;-75
2022/05/21 08:04:43;;;;;;;19.30;10.48;;;;;;;15.17;100.00;156333.97;4861845;29;20124;-74
2022/05/21 08:07:10;;;;;;;16.92;10.23;;;;;;;15.60;100.00;156440.78;4859371;29;20508;-73
2022/05/21 08:09:35;;;;;;;16.38;9.10;;;;;;;16.04;100.00;156551.50;4870182;29;20403;-75
2022/05/21 08:12:02;;;;;;;14.85;9.10;;;;;;;16.21;100.00;156593.97;4866732;29;20037;-75
2022/05/21 08:14:28;;;;;;;18.27;9.05;;;;;;;16.04;100.00;156550.22;4860378;29;20136;-78
2022/05/21 08:16:54;;;;;;;15.35;8.10;;;;;;;15.65;100.00;156452.34;4872716;29;20149;-77
2022/05/21 08:19:20;;;;;;;13.95;8.77;;;;;;;15.30;100.00;156366.13;4859153;29;20052;-76
2022/05/21 08:21:45;;;;;;;15.07;7.95;;;;;;;14.89;100.00;156263.22;4869414;29;20045;-72
2022/05/21 08:26:59;;;;;;;16.40;7.78;;;;;;;14.64;100.00;156198.94;4864008;29;20517;-76
2022/05/21 08:29:34;;;;;;;13.63;7.90;;;;;;;14.36;100.00;156129.41;4869426;29;20049;-76
2022/05/21 08:32:02;;;;;;;15.30;7.72;;;;;;;14.19;100.00;156086.97;4865408;29;20029;-75
2022/05/21 08:34:28;;;;;;;11.95;8.10;;;;;;;14.00;100.00;156039.41;4855252;29;20040;-76
2022/05/21 08:36:54;;;;;;;13.82;8.15;;;;;;;13.90;100.00;156013.69;4876954;29;20086;-74
2022/05/21 08:39:21;;;;;;;16.55;9.05;;;;;;;13.86;100.00;156004.66;4834322;29;20511;-72
2022/05/21 08:42:13;;;;;;;14.32;8.88;;;;;;;13.78;100.00;155984.13;4868595;29;20033;-75
2022/05/21 08:44:44;;;;;;;12.98;7.50;;;;;;;13.75;100.00;155977.72;4853313;29;20041;-74
2022/05/21 08:47:30;;;;;;;12.05;6.40;;;;;;;13.65;100.00;155950.69;4855708;29;20037;-75
2022/05/21 08:50:17;;;;;;;16.05;6.65;;;;;;;13.21;100.00;155841.41;4833407;29;20045;-73
2022/05/21 08:53:05;;;;;;;17.20;6.18;;;;;;;12.77;100.00;155732.22;4850924;29;20490;-76
2022/05/21 08:55:35;;;;;;;12.40;5.55;;;;;;;12.83;100.00;155747.63;4852109;29;20128;-76
2022/05/21 08:58:21;;;;;;;12.82;4.70;;;;;;;12.91;100.00;155766.88;4867803;29;20116;-76
2022/05/21 09:00:48;;;;;;;9.82;4.20;;;;;;;13.10;100.00;155813.16;4854358;29;20041;-76
2022/05/21 09:03:17;;;;;;;11.50;3.90;;;;;;;13.25;100.00;155852.97;4839706;29;20044;-76
2022/05/21 09:05:48;;;;;;;12.45;2.97;;;;;;;13.41;100.00;155891.56;4854719;29;20053;-75
2022/05/21 09:08:16;;;;;;;6.65;2.40;;;;;;;13.76;100.00;155978.97;4866484;29;20113;-76
2022/05/21 09:11:03;;;;;;;6.57;1.92;;;;;;;13.70;100.00;155964.84;4854190;29;20079;-74
2022/05/21 09:13:50;;;;;;;5.00;1.60;;;;;;;13.41;100.00;155891.56;4863651;29;20125;-73
2022/05/21 09:19:05;;;;;;;10.95;2.83;;;;;;;13.49;100.00;155910.88;4859346;29;20044;-73
2022/05/21 09:21:34;;;;;;;8.48;1.83;;;;;;;13.57;100.00;155932.69;4873018;29;20052;-75
2022/05/21 09:24:02;;;;;;;14.88;2.00;;;;;;;13.49;100.00;155912.16;4859915;29;20091;-75
2022/05/21 09:26:44;;;;;;;6.05;1.92;;;;;;;13.57;100.00;155932.69;4871063;29;20776;-75
2022/05/21 09:29:26;;;;;;;11.68;2.60;;;;;;;13.81;100.00;155993.13;4866321;29;20036;-76
2022/05/21 09:31:56;;;;;;;14.52;2.33;;;;;;;13.82;100.00;155994.41;4858587;29;20039;-74
2022/05/21 09:34:31;;;;;;;12.15;2.70;;;;;;;14.16;100.00;156080.53;4870896;29;20045;-74
2022/05/21 09:36:58;;;;;;;10.23;2.50;;;;;;;14.54;100.00;156174.41;4854382;29;20077;-74
2022/05/21 09:39:36;;;;;;;10.38;2.30;;;;;;;14.94;100.00;156274.81;4856573;29;20064;-75
2022/05/21 09:42:08;;;;;;;11.45;2.63;;;;;;;15.27;100.00;156358.41;4855515;29;20068;-78
2022/05/21 09:47:24;;;;;;;7.82;2.00;;;;;;;15.35;100.00;156377.69;4871625;29;20072;-76
2022/05/21 09:50:08;;;;;;;6.93;1.77;;;;;;;15.49;100.00;156412.47;4874057;29;20048;-76
2022/05/21 09:52:35;;;;;;;4.68;1.48;;;;;;;15.01;100.00;156292.78;4870890;29;20072;-76
2022/05/21 09:55:03;;;;;;;7.22;1.40;;;;;;;15.16;100.00;156331.41;4871781;29;20033;-76
2022/05/21 09:57:38;;;;;;;5.70;1.55;;;;;;;14.88;100.00;156259.34;4843842;29;20045;-76
2022/05/21 10:00:33;;;;;;;10.70;2.00;;;;;;;14.83;100.00;156246.50;4866573;29;20040;-74
2022/05/21 10:03:01;;;;;;;9.02;1.50;;;;;;;15.09;100.00;156312.13;4863711;29;20056;-74
2022/05/21 10:05:38;;;;;;;5.82;1.55;;;;;;;15.89;100.00;156512.88;4852118;29;20051;-75
2022/05/21 10:11:25;;;;;;;5.07;0.95;;;;;;;16.43;100.00;156648.06;4866530;29;20032;-75
2022/05/21 10:13:56;;;;;;;9.10;1.40;;;;;;;16.17;100.00;156583.69;4838687;29;20073;-76
2022/05/21 10:16:40;;;;;;;6.65;1.35;;;;;;;15.79;100.00;156488.44;4852195;29;20045;-77
2022/05/21 10:19:46;;;;;;;9.88;1.45;;;;;;;16.28;100.00;156612.00;4865300;29;20044;-75
2022/05/21 10:22:38;;;;;;;8.45;1.20;;;;;;;16.73;100.00;156725.31;4863807;29;20037;-73
2022/05/21 10:25:03;;;;;;;6.43;1.52;;;;;;;17.15;100.00;156828.41;4861562;29;20045;-76
2022/05/21 10:27:51;;;;;;;6.65;1.30;;;;;;;17.21;97.20;156845.13;4864154;29;20044;-76
2022/05/21 10:30:52;;;;;;;6.43;1.50;;;;;;;17.21;96.58;156843.84;4835559;29;20041;-76
2022/05/21 10:33:40;;;;;;;7.45;1.50;;;;;;;16.88;100.00;156761.44;4852820;29;20093;-78
2022/05/21 10:36:34;;;;;;;9.63;1.27;;;;;;;17.02;100.00;156796.19;4863460;29;20037;-75
2022/05/21 10:39:15;;;;;;;5.72;1.40;;;;;;;16.49;100.00;156663.50;4870034;29;20095;-76
2022/05/21 10:42:12;;;;;;;9.25;1.80;;;;;;;15.89;100.00;156514.16;4848840;29;20045;-76
2022/05/21 10:45:05;;;;;;;14.65;1.63;;;;;;;15.54;100.00;156425.34;4864292;29;20065;-75
2022/05/21 10:47:50;;;;;;;10.52;1.63;;;;;;;15.41;100.00;156393.19;4859695;29;20040;-76
2022/05/21 10:50:18;;;;;;;9.32;2.00;;;;;;;15.99;100.00;156537.34;4866403;29;20049;-76
2022/05/21 10:52:52;;;;;;;5.72;1.20;;;;;;;17.04;99.19;156802.63;4840756;29;20046;-77
2022/05/21 10:55:25;;;;;;;6.30;1.70;;;;;;;17.24;97.04;156852.88;4867999;29;20043;-77
2022/05/21 10:58:12;;;;;;;11.27;1.60;;;;;;;16.75;100.00;156729.19;4850946;29;20138;-76
2022/05/21 11:00:46;;;;;;;9.50;1.42;;;;;;;16.78;100.00;156735.63;4867362;29;20037;-78
2022/05/21 11:03:51;;;;;;;7.72;1.30;;;;;;;16.96;90.88;156782.03;4838715;29;20411;-76
2022/05/21 11:06:29;;;;;;;12.25;1.40;;;;;;;16.94;87.86;156776.88;4866456;29;20053;-76
2022/05/21 11:09:09;;;;;;;7.57;1.15;;;;;;;17.03;87.36;156800.06;4869333;29;20108;-76
2022/05/21 11:12:01;;;;;;;12.50;1.33;;;;;;;16.96;89.08;156782.03;4828457;29;20922;-76
2022/05/21 11:14:49;;;;;;;8.20;1.30;;;;;;;17.60;89.78;156943.03;4859947;29;20069;-78
2022/05/21 11:17:23;;;;;;;9.07;1.30;;;;;;;17.80;87.18;156993.31;4854388;29;20049;-76
2022/05/21 11:19:52;;;;;;;11.07;1.65;;;;;;;18.34;82.81;157128.66;4855337;29;20048;-76
2022/05/21 11:22:27;;;;;;;5.85;1.40;;;;;;;18.41;79.70;157146.69;4855318;29;20037;-73
2022/05/21 11:24:58;;;;;;;14.15;1.92;;;;;;;17.86;82.12;157007.53;4847890;29;20531;-76
2022/05/21 11:27:36;;;;;;;11.93;2.00;;;;;;;17.90;79.18;157019.13;4859636;29;20473;-76
2022/05/21 11:30:12;;;;;;;10.43;2.33;;;;;;;18.21;81.72;157096.41;4849045;29;20037;-76
2022/05/21 11:38:49;;;;;;;8.80;1.63;;;;;;;18.48;77.78;157163.47;4867838;29;20048;-75
2022/05/21 11:41:28;;;;;;;5.55;1.33;;;;;;;18.64;83.95;157203.41;4855732;29;20379;-76
2022/05/21 11:47:20;;;;;;;6.15;1.20;;;;;;;18.83;83.24;157251.16;4852334;29;20060;-72
2022/05/21 11:49:51;;;;;;;8.55;1.38;;;;;;;19.54;83.03;157429.13;4837013;29;20253;-75
2022/05/21 11:52:26;;;;;;;7.28;1.30;;;;;;;19.72;78.03;157475.63;4853978;29;20517;-77
2022/05/21 11:54:52;;;;;;;11.15;1.50;;;;;;;19.39;78.25;157391.72;4855055;29;20041;-77
2022/05/21 11:57:45;;;;;;;7.50;1.58;;;;;;;18.35;74.42;157131.25;4842582;29;20056;-77
2022/05/21 12:00:25;;;;;;;13.43;2.20;;;;;;;17.76;80.21;156981.69;4852692;29;20052;-75
2022/05/21 12:02:54;;;;;;;13.30;1.70;;;;;;;18.37;84.03;157135.13;4853429;29;20092;-76
2022/05/21 12:05:40;;;;;;;11.13;1.45;;;;;;;18.47;79.92;157160.88;4871410;29;20052;-75